sensor_id;sensor_type;location;lat;lon;timestamp;P1;durP1;ratioP1;P2;durP2;ratioP2
83125;SDS011;73488;47.234;-1.540;2023-12-07T00:00:18;6.55;;;2.70;;
83125;SDS011;73488;47.234;-1.540;2023-12-07T00:02:43;7.63;;;3.08;;
83125;SDS011;73488;47.234;-1.540;2023-12-07T00:05:09;8.48;;;2.60;;
83125;SDS011;73488;47.234;-1.540;2023-12-07T00:07:34;7.38;;;3.08;;
83125;SDS011;73488;47.234;-1.540;2023-12-07T00:09:59;4.75;;;2.80;;
83125;SDS011;73488;47.234;-1.540;2023-12-07T00:12:25;7.10;;;2.72;;
83125;SDS011;73488;47.234;-1.540;2023-12-07T00:14:50;4.45;;;2.47;;
83125;SDS011;73488;47.234;-1.540;2023-12-07T00:17:16;5.15;;;2.45;;
83125;SDS011;73488;47.234;-1.540;2023-12-07T00:19:41;4.38;;;2.53;;
83125;SDS011;73488;47.234;-1.540;2023-12-07T00:22:07;5.88;;;2.50;;
83125;SDS011;73488;47.234;-1.540;2023-12-07T00:24:32;6.55;;;2.28;;
83125;SDS011;73488;47.234;-1.540;2023-12-07T00:26:58;7.70;;;2.70;;
83125;SDS011;73488;47.234;-1.540;2023-12-07T00:29:23;7.03;;;2.75;;
83125;SDS011;73488;47.234;-1.540;2023-12-07T00:31:48;6.05;;;2.40;;
83125;SDS011;73488;47.234;-1.540;2023-12-07T00:34:14;4.78;;;2.50;;
83125;SDS011;73488;47.234;-1.540;2023-12-07T00:36:39;7.72;;;3.08;;
83125;SDS011;73488;47.234;-1.540;2023-12-07T00:39:06;5.30;;;2.13;;
83125;SDS011;73488;47.234;-1.540;2023-12-07T00:41:31;9.75;;;2.53;;
83125;SDS011;73488;47.234;-1.540;2023-12-07T00:43:57;5.63;;;2.55;;
83125;SDS011;73488;47.234;-1.540;2023-12-07T00:46:22;7.82;;;2.85;;
83125;SDS011;73488;47.234;-1.540;2023-12-07T00:48:48;6.07;;;2.80;;
83125;SDS011;73488;47.234;-1.540;2023-12-07T00:51:13;5.25;;;2.33;;
83125;SDS011;73488;47.234;-1.540;2023-12-07T00:53:40;7.97;;;2.60;;
83125;SDS011;73488;47.234;-1.540;2023-12-07T00:56:05;5.72;;;2.35;;
83125;SDS011;73488;47.234;-1.540;2023-12-07T00:58:31;7.10;;;2.97;;
83125;SDS011;73488;47.234;-1.540;2023-12-07T01:00:57;5.20;;;1.85;;
83125;SDS011;73488;47.234;-1.540;2023-12-07T01:03:22;4.95;;;2.53;;
83125;SDS011;73488;47.234;-1.540;2023-12-07T01:05:48;8.82;;;2.38;;
83125;SDS011;73488;47.234;-1.540;2023-12-07T01:08:13;6.22;;;2.17;;
83125;SDS011;73488;47.234;-1.540;2023-12-07T01:10:39;5.47;;;2.28;;
83125;SDS011;73488;47.234;-1.540;2023-12-07T01:13:04;6.72;;;2.35;;
83125;SDS011;73488;47.234;-1.540;2023-12-07T01:15:30;5.97;;;2.17;;
83125;SDS011;73488;47.234;-1.540;2023-12-07T01:17:56;5.07;;;2.33;;
83125;SDS011;73488;47.234;-1.540;2023-12-07T01:20:21;7.57;;;2.28;;
83125;SDS011;73488;47.234;-1.540;2023-12-07T01:22:46;5.93;;;2.42;;
83125;SDS011;73488;47.234;-1.540;2023-12-07T01:25:12;6.63;;;2.72;;
83125;SDS011;73488;47.234;-1.540;2023-12-07T01:27:41;4.72;;;2.13;;
83125;SDS011;73488;47.234;-1.540;2023-12-07T01:30:07;4.53;;;2.25;;
83125;SDS011;73488;47.234;-1.540;2023-12-07T01:32:33;6.18;;;2.00;;
83125;SDS011;73488;47.234;-1.540;2023-12-07T01:34:59;6.05;;;2.30;;
83125;SDS011;73488;47.234;-1.540;2023-12-07T01:37:24;7.55;;;2.33;;
83125;SDS011;73488;47.234;-1.540;2023-12-07T01:39:50;5.53;;;2.33;;
83125;SDS011;73488;47.234;-1.540;2023-12-07T01:42:15;4.03;;;2.40;;
83125;SDS011;73488;47.234;-1.540;2023-12-07T01:44:42;3.35;;;1.90;;
83125;SDS011;73488;47.234;-1.540;2023-12-07T01:47:07;4.38;;;2.03;;
83125;SDS011;73488;47.234;-1.540;2023-12-07T01:49:33;4.32;;;1.88;;
83125;SDS011;73488;47.234;-1.540;2023-12-07T01:51:59;3.47;;;2.13;;
83125;SDS011;73488;47.234;-1.540;2023-12-07T01:54:25;5.68;;;1.92;;
83125;SDS011;73488;47.234;-1.540;2023-12-07T01:56:50;4.97;;;2.72;;
83125;SDS011;73488;47.234;-1.540;2023-12-07T01:59:16;4.38;;;2.42;;
83125;SDS011;73488;47.234;-1.540;2023-12-07T02:01:42;3.97;;;2.00;;
83125;SDS011;73488;47.234;-1.540;2023-12-07T02:04:09;4.45;;;2.03;;
83125;SDS011;73488;47.234;-1.540;2023-12-07T02:06:34;4.55;;;2.33;;
83125;SDS011;73488;47.234;-1.540;2023-12-07T02:09:00;6.00;;;2.40;;
83125;SDS011;73488;47.234;-1.540;2023-12-07T02:11:26;5.07;;;1.70;;
83125;SDS011;73488;47.234;-1.540;2023-12-07T02:13:52;4.53;;;2.92;;
83125;SDS011;73488;47.234;-1.540;2023-12-07T02:19:15;4.35;;;2.58;;
83125;SDS011;73488;47.234;-1.540;2023-12-07T02:22:02;4.90;;;1.95;;
83125;SDS011;73488;47.234;-1.540;2023-12-07T02:24:35;4.18;;;2.38;;
83125;SDS011;73488;47.234;-1.540;2023-12-07T02:27:02;4.50;;;1.95;;
83125;SDS011;73488;47.234;-1.540;2023-12-07T02:29:28;3.58;;;1.75;;
83125;SDS011;73488;47.234;-1.540;2023-12-07T02:31:53;3.83;;;2.15;;
83125;SDS011;73488;47.234;-1.540;2023-12-07T02:34:18;3.65;;;1.92;;
83125;SDS011;73488;47.234;-1.540;2023-12-07T02:36:44;2.97;;;1.88;;
83125;SDS011;73488;47.234;-1.540;2023-12-07T02:39:11;5.57;;;2.08;;
83125;SDS011;73488;47.234;-1.540;2023-12-07T02:41:37;6.43;;;2.05;;
83125;SDS011;73488;47.234;-1.540;2023-12-07T02:44:04;5.53;;;2.03;;
83125;SDS011;73488;47.234;-1.540;2023-12-07T02:46:30;5.72;;;2.05;;
83125;SDS011;73488;47.234;-1.540;2023-12-07T02:48:56;6.10;;;1.50;;
83125;SDS011;73488;47.234;-1.540;2023-12-07T02:51:23;6.30;;;2.22;;
83125;SDS011;73488;47.234;-1.540;2023-12-07T02:53:48;4.28;;;1.77;;
83125;SDS011;73488;47.234;-1.540;2023-12-07T02:56:14;3.22;;;1.85;;
83125;SDS011;73488;47.234;-1.540;2023-12-07T02:58:39;2.83;;;1.85;;
83125;SDS011;73488;47.234;-1.540;2023-12-07T03:01:05;3.80;;;1.85;;
83125;SDS011;73488;47.234;-1.540;2023-12-07T03:03:30;3.40;;;1.60;;
83125;SDS011;73488;47.234;-1.540;2023-12-07T03:05:56;3.40;;;1.88;;
83125;SDS011;73488;47.234;-1.540;2023-12-07T03:08:21;4.53;;;1.52;;
83125;SDS011;73488;47.234;-1.540;2023-12-07T03:10:47;4.47;;;2.00;;
83125;SDS011;73488;47.234;-1.540;2023-12-07T03:13:12;2.75;;;1.45;;
83125;SDS011;73488;47.234;-1.540;2023-12-07T03:15:38;4.32;;;1.80;;
83125;SDS011;73488;47.234;-1.540;2023-12-07T03:18:03;4.78;;;2.20;;
83125;SDS011;73488;47.234;-1.540;2023-12-07T03:20:28;4.13;;;1.73;;
83125;SDS011;73488;47.234;-1.540;2023-12-07T03:22:54;3.63;;;1.60;;
83125;SDS011;73488;47.234;-1.540;2023-12-07T03:25:19;4.65;;;1.67;;
83125;SDS011;73488;47.234;-1.540;2023-12-07T03:27:45;3.40;;;1.80;;
83125;SDS011;73488;47.234;-1.540;2023-12-07T03:30:10;4.05;;;1.88;;
83125;SDS011;73488;47.234;-1.540;2023-12-07T03:32:36;2.97;;;1.60;;
83125;SDS011;73488;47.234;-1.540;2023-12-07T03:35:01;5.95;;;1.60;;
83125;SDS011;73488;47.234;-1.540;2023-12-07T03:37:27;3.63;;;1.65;;
83125;SDS011;73488;47.234;-1.540;2023-12-07T03:39:52;3.95;;;1.98;;
83125;SDS011;73488;47.234;-1.540;2023-12-07T03:42:18;4.22;;;1.90;;
83125;SDS011;73488;47.234;-1.540;2023-12-07T03:44:43;2.17;;;1.27;;
83125;SDS011;73488;47.234;-1.540;2023-12-07T03:47:09;3.90;;;1.73;;
83125;SDS011;73488;47.234;-1.540;2023-12-07T03:49:35;3.13;;;1.85;;
83125;SDS011;73488;47.234;-1.540;2023-12-07T03:52:00;3.58;;;1.67;;
83125;SDS011;73488;47.234;-1.540;2023-12-07T03:54:26;3.03;;;1.63;;
83125;SDS011;73488;47.234;-1.540;2023-12-07T03:56:51;4.15;;;1.58;;
83125;SDS011;73488;47.234;-1.540;2023-12-07T03:59:17;3.67;;;1.70;;
83125;SDS011;73488;47.234;-1.540;2023-12-07T04:01:43;4.38;;;1.70;;
83125;SDS011;73488;47.234;-1.540;2023-12-07T04:04:08;2.95;;;1.67;;
83125;SDS011;73488;47.234;-1.540;2023-12-07T04:06:33;2.75;;;1.50;;
83125;SDS011;73488;47.234;-1.540;2023-12-07T04:08:59;2.38;;;1.20;;
83125;SDS011;73488;47.234;-1.540;2023-12-07T04:11:24;3.63;;;1.65;;
83125;SDS011;73488;47.234;-1.540;2023-12-07T04:13:50;3.67;;;1.55;;
83125;SDS011;73488;47.234;-1.540;2023-12-07T04:16:15;2.35;;;1.20;;
83125;SDS011;73488;47.234;-1.540;2023-12-07T04:18:41;2.50;;;1.55;;
83125;SDS011;73488;47.234;-1.540;2023-12-07T04:21:06;4.22;;;1.85;;
83125;SDS011;73488;47.234;-1.540;2023-12-07T04:23:32;3.08;;;1.77;;
83125;SDS011;73488;47.234;-1.540;2023-12-07T04:25:58;2.78;;;1.67;;
83125;SDS011;73488;47.234;-1.540;2023-12-07T04:28:23;3.67;;;1.90;;
83125;SDS011;73488;47.234;-1.540;2023-12-07T04:30:49;3.95;;;1.88;;
83125;SDS011;73488;47.234;-1.540;2023-12-07T04:33:14;5.25;;;1.60;;
83125;SDS011;73488;47.234;-1.540;2023-12-07T04:35:40;3.42;;;1.63;;
83125;SDS011;73488;47.234;-1.540;2023-12-07T04:38:05;2.08;;;1.40;;
83125;SDS011;73488;47.234;-1.540;2023-12-07T04:40:31;3.65;;;1.45;;
83125;SDS011;73488;47.234;-1.540;2023-12-07T04:42:56;2.47;;;1.33;;
83125;SDS011;73488;47.234;-1.540;2023-12-07T04:45:21;3.30;;;1.65;;
83125;SDS011;73488;47.234;-1.540;2023-12-07T04:47:47;2.80;;;1.95;;
83125;SDS011;73488;47.234;-1.540;2023-12-07T04:50:12;2.97;;;1.55;;
83125;SDS011;73488;47.234;-1.540;2023-12-07T04:52:38;2.95;;;1.27;;
83125;SDS011;73488;47.234;-1.540;2023-12-07T04:55:04;3.38;;;1.40;;
83125;SDS011;73488;47.234;-1.540;2023-12-07T04:57:36;3.13;;;1.45;;
83125;SDS011;73488;47.234;-1.540;2023-12-07T05:00:04;4.22;;;1.52;;
83125;SDS011;73488;47.234;-1.540;2023-12-07T05:02:35;3.90;;;1.42;;
83125;SDS011;73488;47.234;-1.540;2023-12-07T05:05:01;2.80;;;1.98;;
83125;SDS011;73488;47.234;-1.540;2023-12-07T05:07:26;2.45;;;1.42;;
83125;SDS011;73488;47.234;-1.540;2023-12-07T05:09:52;2.35;;;1.35;;
83125;SDS011;73488;47.234;-1.540;2023-12-07T05:12:17;3.50;;;2.15;;
83125;SDS011;73488;47.234;-1.540;2023-12-07T05:14:43;1.73;;;1.33;;
83125;SDS011;73488;47.234;-1.540;2023-12-07T05:17:08;3.65;;;1.73;;
83125;SDS011;73488;47.234;-1.540;2023-12-07T05:19:34;1.90;;;1.20;;
83125;SDS011;73488;47.234;-1.540;2023-12-07T05:21:59;2.70;;;1.23;;
83125;SDS011;73488;47.234;-1.540;2023-12-07T05:24:25;3.10;;;1.48;;
83125;SDS011;73488;47.234;-1.540;2023-12-07T05:26:50;2.45;;;1.45;;
83125;SDS011;73488;47.234;-1.540;2023-12-07T05:29:16;3.25;;;1.13;;
83125;SDS011;73488;47.234;-1.540;2023-12-07T05:31:42;2.45;;;1.42;;
83125;SDS011;73488;47.234;-1.540;2023-12-07T05:34:08;3.70;;;1.23;;
83125;SDS011;73488;47.234;-1.540;2023-12-07T05:36:33;2.33;;;1.38;;
83125;SDS011;73488;47.234;-1.540;2023-12-07T05:38:59;5.03;;;1.30;;
83125;SDS011;73488;47.234;-1.540;2023-12-07T05:41:25;2.28;;;1.42;;
83125;SDS011;73488;47.234;-1.540;2023-12-07T05:43:51;2.53;;;1.63;;
83125;SDS011;73488;47.234;-1.540;2023-12-07T05:46:17;1.75;;;1.10;;
83125;SDS011;73488;47.234;-1.540;2023-12-07T05:48:43;2.13;;;1.23;;
83125;SDS011;73488;47.234;-1.540;2023-12-07T05:51:15;2.13;;;1.67;;
83125;SDS011;73488;47.234;-1.540;2023-12-07T05:53:41;3.63;;;1.27;;
83125;SDS011;73488;47.234;-1.540;2023-12-07T05:56:07;2.40;;;1.58;;
83125;SDS011;73488;47.234;-1.540;2023-12-07T05:58:33;2.92;;;1.30;;
83125;SDS011;73488;47.234;-1.540;2023-12-07T06:01:00;2.50;;;1.30;;
83125;SDS011;73488;47.234;-1.540;2023-12-07T06:03:26;2.78;;;1.30;;
83125;SDS011;73488;47.234;-1.540;2023-12-07T06:05:51;2.63;;;1.55;;
83125;SDS011;73488;47.234;-1.540;2023-12-07T06:08:17;2.53;;;1.20;;
83125;SDS011;73488;47.234;-1.540;2023-12-07T06:10:42;1.85;;;1.38;;
83125;SDS011;73488;47.234;-1.540;2023-12-07T06:13:08;2.45;;;1.67;;
83125;SDS011;73488;47.234;-1.540;2023-12-07T06:15:33;1.67;;;1.02;;
83125;SDS011;73488;47.234;-1.540;2023-12-07T06:17:59;1.75;;;1.00;;
83125;SDS011;73488;47.234;-1.540;2023-12-07T06:20:24;2.00;;;1.17;;
83125;SDS011;73488;47.234;-1.540;2023-12-07T06:22:50;6.20;;;1.13;;
83125;SDS011;73488;47.234;-1.540;2023-12-07T06:25:15;3.05;;;1.42;;
83125;SDS011;73488;47.234;-1.540;2023-12-07T06:27:41;2.13;;;0.95;;
83125;SDS011;73488;47.234;-1.540;2023-12-07T06:30:07;2.38;;;1.00;;
83125;SDS011;73488;47.234;-1.540;2023-12-07T06:32:32;3.72;;;1.25;;
83125;SDS011;73488;47.234;-1.540;2023-12-07T06:34:59;1.95;;;1.00;;
83125;SDS011;73488;47.234;-1.540;2023-12-07T06:37:24;1.65;;;1.20;;
83125;SDS011;73488;47.234;-1.540;2023-12-07T06:39:50;4.63;;;1.08;;
83125;SDS011;73488;47.234;-1.540;2023-12-07T06:42:15;2.03;;;1.10;;
83125;SDS011;73488;47.234;-1.540;2023-12-07T06:44:48;4.60;;;1.55;;
83125;SDS011;73488;47.234;-1.540;2023-12-07T06:47:16;3.50;;;1.10;;
83125;SDS011;73488;47.234;-1.540;2023-12-07T06:49:43;5.05;;;1.30;;
83125;SDS011;73488;47.234;-1.540;2023-12-07T06:52:09;1.92;;;1.02;;
83125;SDS011;73488;47.234;-1.540;2023-12-07T06:54:36;3.25;;;1.30;;
83125;SDS011;73488;47.234;-1.540;2023-12-07T06:57:01;5.65;;;1.42;;
83125;SDS011;73488;47.234;-1.540;2023-12-07T06:59:27;5.50;;;1.52;;
83125;SDS011;73488;47.234;-1.540;2023-12-07T07:01:53;2.70;;;1.33;;
83125;SDS011;73488;47.234;-1.540;2023-12-07T07:04:18;3.88;;;1.48;;
83125;SDS011;73488;47.234;-1.540;2023-12-07T07:06:44;4.38;;;1.60;;
83125;SDS011;73488;47.234;-1.540;2023-12-07T07:09:09;6.20;;;1.67;;
83125;SDS011;73488;47.234;-1.540;2023-12-07T07:11:35;5.25;;;1.48;;
83125;SDS011;73488;47.234;-1.540;2023-12-07T07:14:02;4.50;;;1.50;;
83125;SDS011;73488;47.234;-1.540;2023-12-07T07:16:27;3.83;;;1.30;;
83125;SDS011;73488;47.234;-1.540;2023-12-07T07:18:52;3.67;;;1.40;;
83125;SDS011;73488;47.234;-1.540;2023-12-07T07:21:18;3.63;;;1.23;;
83125;SDS011;73488;47.234;-1.540;2023-12-07T07:23:45;5.40;;;1.42;;
83125;SDS011;73488;47.234;-1.540;2023-12-07T07:26:10;7.53;;;1.25;;
83125;SDS011;73488;47.234;-1.540;2023-12-07T07:28:36;4.30;;;1.55;;
83125;SDS011;73488;47.234;-1.540;2023-12-07T07:31:02;5.18;;;2.00;;
83125;SDS011;73488;47.234;-1.540;2023-12-07T07:33:27;3.17;;;1.70;;
83125;SDS011;73488;47.234;-1.540;2023-12-07T07:35:53;7.93;;;1.85;;
83125;SDS011;73488;47.234;-1.540;2023-12-07T07:38:18;6.85;;;1.70;;
83125;SDS011;73488;47.234;-1.540;2023-12-07T07:40:44;5.82;;;2.15;;
83125;SDS011;73488;47.234;-1.540;2023-12-07T07:43:10;4.38;;;1.75;;
83125;SDS011;73488;47.234;-1.540;2023-12-07T07:45:36;7.85;;;1.92;;
83125;SDS011;73488;47.234;-1.540;2023-12-07T07:48:01;5.35;;;1.35;;
83125;SDS011;73488;47.234;-1.540;2023-12-07T07:50:27;5.30;;;1.92;;
83125;SDS011;73488;47.234;-1.540;2023-12-07T07:52:54;3.80;;;1.42;;
83125;SDS011;73488;47.234;-1.540;2023-12-07T07:55:20;4.78;;;1.70;;
83125;SDS011;73488;47.234;-1.540;2023-12-07T07:57:45;7.32;;;1.83;;
83125;SDS011;73488;47.234;-1.540;2023-12-07T08:00:10;3.70;;;1.45;;
83125;SDS011;73488;47.234;-1.540;2023-12-07T08:02:38;3.17;;;1.52;;
83125;SDS011;73488;47.234;-1.540;2023-12-07T08:05:03;4.30;;;1.52;;
83125;SDS011;73488;47.234;-1.540;2023-12-07T08:07:29;3.83;;;1.25;;
83125;SDS011;73488;47.234;-1.540;2023-12-07T08:09:54;2.85;;;1.45;;
83125;SDS011;73488;47.234;-1.540;2023-12-07T08:12:20;2.00;;;1.17;;
83125;SDS011;73488;47.234;-1.540;2023-12-07T08:14:48;5.40;;;1.83;;
83125;SDS011;73488;47.234;-1.540;2023-12-07T08:17:13;3.50;;;1.77;;
83125;SDS011;73488;47.234;-1.540;2023-12-07T08:19:41;6.13;;;1.90;;
83125;SDS011;73488;47.234;-1.540;2023-12-07T08:22:07;8.73;;;2.45;;
83125;SDS011;73488;47.234;-1.540;2023-12-07T08:24:33;7.28;;;2.30;;
83125;SDS011;73488;47.234;-1.540;2023-12-07T08:26:58;9.38;;;2.47;;
83125;SDS011;73488;47.234;-1.540;2023-12-07T08:29:23;4.60;;;2.25;;
83125;SDS011;73488;47.234;-1.540;2023-12-07T08:31:49;5.32;;;2.58;;
83125;SDS011;73488;47.234;-1.540;2023-12-07T08:34:14;5.97;;;2.67;;
83125;SDS011;73488;47.234;-1.540;2023-12-07T08:36:40;6.65;;;2.40;;
83125;SDS011;73488;47.234;-1.540;2023-12-07T08:39:05;7.03;;;2.75;;
83125;SDS011;73488;47.234;-1.540;2023-12-07T08:41:34;6.80;;;2.65;;
83125;SDS011;73488;47.234;-1.540;2023-12-07T08:44:00;6.53;;;3.22;;
83125;SDS011;73488;47.234;-1.540;2023-12-07T08:46:25;6.65;;;3.25;;
83125;SDS011;73488;47.234;-1.540;2023-12-07T08:48:51;5.25;;;2.67;;
83125;SDS011;73488;47.234;-1.540;2023-12-07T08:51:17;8.95;;;2.85;;
83125;SDS011;73488;47.234;-1.540;2023-12-07T08:53:42;5.28;;;2.40;;
83125;SDS011;73488;47.234;-1.540;2023-12-07T08:56:08;3.47;;;2.05;;
83125;SDS011;73488;47.234;-1.540;2023-12-07T08:58:33;4.95;;;2.20;;
83125;SDS011;73488;47.234;-1.540;2023-12-07T09:00:59;3.55;;;2.03;;
83125;SDS011;73488;47.234;-1.540;2023-12-07T09:03:24;5.07;;;2.30;;
83125;SDS011;73488;47.234;-1.540;2023-12-07T09:05:52;7.38;;;2.40;;
83125;SDS011;73488;47.234;-1.540;2023-12-07T09:08:18;4.30;;;1.77;;
83125;SDS011;73488;47.234;-1.540;2023-12-07T09:10:44;6.90;;;2.33;;
83125;SDS011;73488;47.234;-1.540;2023-12-07T09:13:09;4.78;;;2.00;;
83125;SDS011;73488;47.234;-1.540;2023-12-07T09:15:35;4.90;;;2.25;;
83125;SDS011;73488;47.234;-1.540;2023-12-07T09:18:02;4.22;;;2.08;;
83125;SDS011;73488;47.234;-1.540;2023-12-07T09:20:28;4.47;;;2.03;;
83125;SDS011;73488;47.234;-1.540;2023-12-07T09:22:53;4.07;;;2.17;;
83125;SDS011;73488;47.234;-1.540;2023-12-07T09:25:20;4.68;;;2.05;;
83125;SDS011;73488;47.234;-1.540;2023-12-07T09:27:46;6.07;;;2.17;;
83125;SDS011;73488;47.234;-1.540;2023-12-07T09:30:12;3.50;;;1.52;;
83125;SDS011;73488;47.234;-1.540;2023-12-07T09:32:41;3.72;;;2.30;;
83125;SDS011;73488;47.234;-1.540;2023-12-07T09:35:07;3.75;;;1.98;;
83125;SDS011;73488;47.234;-1.540;2023-12-07T09:37:39;3.20;;;1.48;;
83125;SDS011;73488;47.234;-1.540;2023-12-07T09:40:05;3.28;;;1.60;;
83125;SDS011;73488;47.234;-1.540;2023-12-07T09:42:32;4.85;;;1.90;;
83125;SDS011;73488;47.234;-1.540;2023-12-07T09:44:58;3.67;;;1.92;;
83125;SDS011;73488;47.234;-1.540;2023-12-07T09:47:24;9.00;;;2.60;;
83125;SDS011;73488;47.234;-1.540;2023-12-07T09:49:51;3.47;;;1.80;;
83125;SDS011;73488;47.234;-1.540;2023-12-07T09:52:17;5.28;;;2.20;;
83125;SDS011;73488;47.234;-1.540;2023-12-07T09:54:42;4.50;;;2.28;;
83125;SDS011;73488;47.234;-1.540;2023-12-07T09:57:08;3.90;;;2.35;;
83125;SDS011;73488;47.234;-1.540;2023-12-07T09:59:37;4.97;;;2.22;;
83125;SDS011;73488;47.234;-1.540;2023-12-07T10:02:02;4.25;;;2.17;;
83125;SDS011;73488;47.234;-1.540;2023-12-07T10:04:27;4.35;;;2.17;;
83125;SDS011;73488;47.234;-1.540;2023-12-07T10:06:53;4.50;;;2.35;;
83125;SDS011;73488;47.234;-1.540;2023-12-07T10:09:19;3.70;;;2.00;;
83125;SDS011;73488;47.234;-1.540;2023-12-07T10:11:46;7.40;;;2.92;;
83125;SDS011;73488;47.234;-1.540;2023-12-07T10:14:12;5.63;;;2.42;;
83125;SDS011;73488;47.234;-1.540;2023-12-07T10:16:37;4.72;;;2.38;;
83125;SDS011;73488;47.234;-1.540;2023-12-07T10:19:15;4.07;;;2.30;;
83125;SDS011;73488;47.234;-1.540;2023-12-07T10:21:50;6.47;;;2.00;;
83125;SDS011;73488;47.234;-1.540;2023-12-07T10:24:20;2.70;;;1.80;;
83125;SDS011;73488;47.234;-1.540;2023-12-07T10:26:47;3.58;;;1.58;;
83125;SDS011;73488;47.234;-1.540;2023-12-07T10:29:13;3.53;;;1.80;;
83125;SDS011;73488;47.234;-1.540;2023-12-07T10:31:38;4.00;;;1.85;;
83125;SDS011;73488;47.234;-1.540;2023-12-07T10:34:04;4.45;;;1.90;;
83125;SDS011;73488;47.234;-1.540;2023-12-07T10:36:30;2.45;;;1.52;;
83125;SDS011;73488;47.234;-1.540;2023-12-07T10:38:56;2.75;;;1.70;;
83125;SDS011;73488;47.234;-1.540;2023-12-07T10:41:22;3.97;;;1.70;;
83125;SDS011;73488;47.234;-1.540;2023-12-07T10:43:52;3.80;;;1.83;;
83125;SDS011;73488;47.234;-1.540;2023-12-07T10:46:21;12.25;;;2.90;;
83125;SDS011;73488;47.234;-1.540;2023-12-07T10:48:48;6.05;;;2.30;;
83125;SDS011;73488;47.234;-1.540;2023-12-07T10:51:17;4.15;;;1.92;;
83125;SDS011;73488;47.234;-1.540;2023-12-07T10:53:46;7.43;;;2.35;;
83125;SDS011;73488;47.234;-1.540;2023-12-07T10:56:20;6.53;;;2.55;;
83125;SDS011;73488;47.234;-1.540;2023-12-07T10:58:54;5.15;;;2.55;;
83125;SDS011;73488;47.234;-1.540;2023-12-07T11:01:20;7.72;;;2.00;;
83125;SDS011;73488;47.234;-1.540;2023-12-07T11:03:46;5.50;;;1.85;;
83125;SDS011;73488;47.234;-1.540;2023-12-07T11:06:14;2.63;;;1.70;;
83125;SDS011;73488;47.234;-1.540;2023-12-07T11:08:44;3.55;;;1.90;;
83125;SDS011;73488;47.234;-1.540;2023-12-07T11:13:52;2.50;;;1.48;;
83125;SDS011;73488;47.234;-1.540;2023-12-07T11:16:28;4.30;;;2.13;;
83125;SDS011;73488;47.234;-1.540;2023-12-07T11:18:54;2.95;;;1.55;;
83125;SDS011;73488;47.234;-1.540;2023-12-07T11:21:20;4.10;;;2.45;;
83125;SDS011;73488;47.234;-1.540;2023-12-07T11:23:46;7.20;;;2.10;;
83125;SDS011;73488;47.234;-1.540;2023-12-07T11:26:11;5.53;;;1.70;;
83125;SDS011;73488;47.234;-1.540;2023-12-07T11:28:40;5.38;;;1.83;;
83125;SDS011;73488;47.234;-1.540;2023-12-07T11:31:06;7.45;;;2.05;;
83125;SDS011;73488;47.234;-1.540;2023-12-07T11:33:32;2.90;;;2.00;;
83125;SDS011;73488;47.234;-1.540;2023-12-07T11:36:07;3.55;;;1.35;;
83125;SDS011;73488;47.234;-1.540;2023-12-07T11:38:35;3.03;;;1.55;;
83125;SDS011;73488;47.234;-1.540;2023-12-07T11:41:20;5.05;;;1.83;;
83125;SDS011;73488;47.234;-1.540;2023-12-07T11:43:46;2.97;;;1.65;;
83125;SDS011;73488;47.234;-1.540;2023-12-07T11:46:11;6.43;;;1.88;;
83125;SDS011;73488;47.234;-1.540;2023-12-07T11:48:37;3.33;;;1.65;;
83125;SDS011;73488;47.234;-1.540;2023-12-07T11:51:06;6.13;;;1.77;;
83125;SDS011;73488;47.234;-1.540;2023-12-07T11:53:38;5.13;;;2.05;;
83125;SDS011;73488;47.234;-1.540;2023-12-07T11:56:05;3.75;;;1.90;;
83125;SDS011;73488;47.234;-1.540;2023-12-07T11:58:32;3.17;;;1.25;;
83125;SDS011;73488;47.234;-1.540;2023-12-07T12:00:59;3.13;;;1.90;;
83125;SDS011;73488;47.234;-1.540;2023-12-07T12:03:25;3.47;;;1.48;;
83125;SDS011;73488;47.234;-1.540;2023-12-07T12:05:51;2.42;;;1.20;;
83125;SDS011;73488;47.234;-1.540;2023-12-07T12:08:17;4.57;;;1.40;;
83125;SDS011;73488;47.234;-1.540;2023-12-07T12:10:44;2.25;;;1.10;;
83125;SDS011;73488;47.234;-1.540;2023-12-07T12:13:10;4.32;;;1.40;;
83125;SDS011;73488;47.234;-1.540;2023-12-07T12:15:35;3.08;;;1.30;;
83125;SDS011;73488;47.234;-1.540;2023-12-07T12:18:01;3.65;;;1.35;;
83125;SDS011;73488;47.234;-1.540;2023-12-07T12:20:28;3.13;;;1.67;;
83125;SDS011;73488;47.234;-1.540;2023-12-07T12:22:53;3.08;;;1.20;;
83125;SDS011;73488;47.234;-1.540;2023-12-07T12:25:22;2.80;;;1.15;;
83125;SDS011;73488;47.234;-1.540;2023-12-07T12:27:50;2.90;;;1.40;;
83125;SDS011;73488;47.234;-1.540;2023-12-07T12:30:20;2.45;;;1.30;;
83125;SDS011;73488;47.234;-1.540;2023-12-07T12:32:47;2.47;;;1.20;;
83125;SDS011;73488;47.234;-1.540;2023-12-07T12:35:13;2.53;;;0.93;;
83125;SDS011;73488;47.234;-1.540;2023-12-07T12:37:43;2.75;;;1.20;;
83125;SDS011;73488;47.234;-1.540;2023-12-07T12:40:13;1.52;;;1.35;;
83125;SDS011;73488;47.234;-1.540;2023-12-07T12:42:44;1.73;;;0.80;;
83125;SDS011;73488;47.234;-1.540;2023-12-07T12:45:10;2.78;;;1.20;;
83125;SDS011;73488;47.234;-1.540;2023-12-07T12:47:37;2.30;;;1.40;;
83125;SDS011;73488;47.234;-1.540;2023-12-07T12:50:03;2.40;;;1.15;;
83125;SDS011;73488;47.234;-1.540;2023-12-07T12:52:29;3.15;;;1.08;;
83125;SDS011;73488;47.234;-1.540;2023-12-07T12:54:55;1.85;;;1.10;;
83125;SDS011;73488;47.234;-1.540;2023-12-07T12:57:22;2.78;;;1.38;;
83125;SDS011;73488;47.234;-1.540;2023-12-07T12:59:47;1.70;;;1.02;;
83125;SDS011;73488;47.234;-1.540;2023-12-07T13:02:13;3.78;;;1.55;;
83125;SDS011;73488;47.234;-1.540;2023-12-07T13:04:39;2.17;;;1.45;;
83125;SDS011;73488;47.234;-1.540;2023-12-07T13:07:05;2.40;;;1.40;;
83125;SDS011;73488;47.234;-1.540;2023-12-07T13:09:31;2.00;;;1.10;;
83125;SDS011;73488;47.234;-1.540;2023-12-07T13:11:57;1.55;;;1.08;;
83125;SDS011;73488;47.234;-1.540;2023-12-07T13:14:23;1.67;;;1.10;;
83125;SDS011;73488;47.234;-1.540;2023-12-07T13:16:49;2.70;;;1.30;;
83125;SDS011;73488;47.234;-1.540;2023-12-07T13:19:14;2.58;;;1.10;;
83125;SDS011;73488;47.234;-1.540;2023-12-07T13:21:40;2.85;;;1.00;;
83125;SDS011;73488;47.234;-1.540;2023-12-07T13:24:05;2.60;;;1.50;;
83125;SDS011;73488;47.234;-1.540;2023-12-07T13:26:32;1.73;;;1.35;;
83125;SDS011;73488;47.234;-1.540;2023-12-07T13:28:58;2.38;;;1.35;;
83125;SDS011;73488;47.234;-1.540;2023-12-07T13:31:23;2.88;;;1.52;;
83125;SDS011;73488;47.234;-1.540;2023-12-07T13:33:49;2.67;;;1.30;;
83125;SDS011;73488;47.234;-1.540;2023-12-07T13:36:15;3.28;;;1.27;;
83125;SDS011;73488;47.234;-1.540;2023-12-07T13:38:43;1.98;;;1.40;;
83125;SDS011;73488;47.234;-1.540;2023-12-07T13:41:08;1.65;;;1.33;;
83125;SDS011;73488;47.234;-1.540;2023-12-07T13:43:34;3.13;;;1.48;;
83125;SDS011;73488;47.234;-1.540;2023-12-07T13:46:00;2.28;;;1.10;;
83125;SDS011;73488;47.234;-1.540;2023-12-07T13:48:25;1.70;;;1.02;;
83125;SDS011;73488;47.234;-1.540;2023-12-07T13:50:51;1.85;;;1.23;;
83125;SDS011;73488;47.234;-1.540;2023-12-07T13:53:17;1.90;;;1.10;;
83125;SDS011;73488;47.234;-1.540;2023-12-07T13:55:44;2.38;;;1.27;;
83125;SDS011;73488;47.234;-1.540;2023-12-07T13:58:10;2.60;;;1.20;;
83125;SDS011;73488;47.234;-1.540;2023-12-07T14:00:36;2.30;;;2.00;;
83125;SDS011;73488;47.234;-1.540;2023-12-07T14:03:02;3.30;;;1.40;;
83125;SDS011;73488;47.234;-1.540;2023-12-07T14:05:29;2.30;;;1.45;;
83125;SDS011;73488;47.234;-1.540;2023-12-07T14:07:55;1.73;;;1.10;;
83125;SDS011;73488;47.234;-1.540;2023-12-07T14:10:20;4.03;;;1.40;;
83125;SDS011;73488;47.234;-1.540;2023-12-07T14:12:46;2.53;;;1.17;;
83125;SDS011;73488;47.234;-1.540;2023-12-07T14:15:11;2.33;;;1.42;;
83125;SDS011;73488;47.234;-1.540;2023-12-07T14:17:36;3.60;;;1.20;;
83125;SDS011;73488;47.234;-1.540;2023-12-07T14:20:05;3.30;;;1.92;;
83125;SDS011;73488;47.234;-1.540;2023-12-07T14:22:32;5.72;;;1.70;;
83125;SDS011;73488;47.234;-1.540;2023-12-07T14:24:58;2.28;;;1.50;;
83125;SDS011;73488;47.234;-1.540;2023-12-07T14:27:23;3.08;;;1.35;;
83125;SDS011;73488;47.234;-1.540;2023-12-07T14:29:49;2.45;;;1.25;;
83125;SDS011;73488;47.234;-1.540;2023-12-07T14:32:15;2.67;;;1.25;;